Time;durP1;ratioP1;P1;durP2;ratioP2;P2;SDS_P1;SDS_P2;PMS_P1;PMS_P2;Temp;Humidity;BMP_temperature;BMP_pressure;BME280_temperature;BME280_humidity;BME280_pressure;Samples;Min_cycle;Max_cycle;Signal;HPM_P1;HPM_P2
2021/05/09 00:01:34;;;;;;;11.27;6.93;;;7.60;99.90;;;;;;5089284;28;20587;-68
2021/05/09 00:04:00;;;;;;;11.87;6.00;;;7.60;99.90;;;;;;5076903;28;20210;-69
2021/05/09 00:06:26;;;;;;;10.50;6.47;;;7.60;99.90;;;;;;5084960;28;20297;-68
2021/05/09 00:08:53;;;;;;;14.40;7.23;;;7.50;99.90;;;;;;5083404;28;20295;-70
2021/05/09 00:11:20;;;;;;;11.67;6.23;;;7.50;99.90;;;;;;5082432;28;20624;-68
2021/05/09 00:13:46;;;;;;;12.47;6.50;;;7.60;99.90;;;;;;5079835;28;20286;-68
2021/05/09 00:16:13;;;;;;;8.13;5.13;;;7.60;99.90;;;;;;5071859;28;20702;-69
2021/05/09 00:18:40;;;;;;;8.97;5.90;;;7.60;99.90;;;;;;5081677;28;20288;-69
2021/05/09 00:21:06;;;;;;;10.80;5.97;;;7.70;99.90;;;;;;5087601;28;20207;-68
2021/05/09 00:23:33;;;;;;;9.47;6.17;;;7.70;99.90;;;;;;5081183;28;20677;-68
2021/05/09 00:25:59;;;;;;;8.30;5.53;;;7.70;99.90;;;;;;5086281;28;20206;-69
2021/05/09 00:28:26;;;;;;;11.50;6.70;;;7.70;99.90;;;;;;5084570;28;20201;-68
2021/05/09 00:30:53;;;;;;;11.17;6.40;;;7.70;99.90;;;;;;5083127;28;20217;-69
2021/05/09 00:33:20;;;;;;;11.63;6.53;;;7.70;99.90;;;;;;5084153;28;20588;-69
2021/05/09 00:35:46;;;;;;;9.40;5.93;;;7.70;99.90;;;;;;5087754;28;20675;-68
2021/05/09 00:38:13;;;;;;;10.57;6.00;;;7.70;99.90;;;;;;5085281;28;20201;-68
2021/05/09 00:40:39;;;;;;;9.93;5.97;;;7.70;99.90;;;;;;5088543;28;20246;-68
2021/05/09 00:43:06;;;;;;;11.77;6.33;;;7.70;99.90;;;;;;5089117;28;20213;-68
2021/05/09 00:45:33;;;;;;;10.30;5.93;;;7.70;99.90;;;;;;5086788;28;20217;-69
2021/05/09 00:48:00;;;;;;;8.83;5.43;;;7.80;99.90;;;;;;5086164;28;20200;-68
2021/05/09 00:50:28;;;;;;;10.63;5.80;;;7.80;99.90;;;;;;5084946;28;20256;-69
2021/05/09 00:52:57;;;;;;;9.80;5.60;;;7.80;99.90;;;;;;5082947;28;20216;-69
2021/05/09 00:55:25;;;;;;;9.73;6.23;;;7.80;99.90;;;;;;5081758;28;20524;-69
2021/05/09 00:57:51;;;;;;;13.67;7.17;;;7.80;99.90;;;;;;5091582;28;20740;-68
2021/05/09 01:00:19;;;;;;;11.73;6.53;;;7.80;99.90;;;;;;5091338;28;20201;-71
2021/05/09 01:02:46;;;;;;;11.33;6.93;;;7.80;99.90;;;;;;5079646;28;20209;-71
2021/05/09 01:05:14;;;;;;;11.00;6.93;;;7.80;99.90;;;;;;5077665;28;20279;-70
2021/05/09 01:07:41;;;;;;;11.13;6.77;;;7.80;99.90;;;;;;5086153;28;20738;-71
2021/05/09 01:10:09;;;;;;;10.57;6.83;;;7.80;99.90;;;;;;5087023;28;20312;-70
2021/05/09 01:12:36;;;;;;;13.57;7.77;;;7.80;99.90;;;;;;5080302;28;20649;-72
2021/05/09 01:15:04;;;;;;;14.53;8.20;;;7.80;99.90;;;;;;5078448;28;20224;-71
2021/05/09 01:17:30;;;;;;;13.20;7.40;;;7.80;99.90;;;;;;5078103;28;20212;-71
2021/05/09 01:20:00;;;;;;;12.23;8.20;;;7.70;99.90;;;;;;5083653;28;20596;-70
2021/05/09 01:22:27;;;;;;;15.83;8.33;;;7.70;99.90;;;;;;5083416;28;20201;-71
2021/05/09 01:24:53;;;;;;;14.50;8.20;;;7.70;99.90;;;;;;5082707;28;20209;-71
2021/05/09 01:27:19;;;;;;;15.47;8.67;;;7.70;99.90;;;;;;5080686;28;20253;-71
2021/05/09 01:29:46;;;;;;;14.00;8.03;;;7.70;99.90;;;;;;5081228;28;20245;-70
2021/05/09 01:32:12;;;;;;;16.03;8.33;;;7.70;99.90;;;;;;5087634;28;20209;-71
2021/05/09 01:34:39;;;;;;;14.07;8.73;;;7.70;99.90;;;;;;5088467;28;20237;-70
2021/05/09 01:37:06;;;;;;;16.43;8.80;;;7.70;99.90;;;;;;5085791;28;20253;-71
2021/05/09 01:39:33;;;;;;;17.80;8.73;;;7.70;99.90;;;;;;5081184;28;20629;-70
2021/05/09 01:42:01;;;;;;;16.23;9.30;;;7.70;99.90;;;;;;5075665;28;20201;-70
2021/05/09 01:44:27;;;;;;;17.17;8.87;;;7.60;99.90;;;;;;5092871;28;20209;-70
2021/05/09 01:46:54;;;;;;;14.80;9.17;;;7.60;99.90;;;;;;5080124;28;20217;-71
2021/05/09 01:49:20;;;;;;;15.87;9.77;;;7.60;99.90;;;;;;5082840;28;20228;-70
2021/05/09 01:51:47;;;;;;;15.83;9.50;;;7.40;99.90;;;;;;5083438;28;20754;-71
2021/05/09 01:54:14;;;;;;;14.33;9.07;;;7.60;99.90;;;;;;5085979;28;20288;-70
2021/05/09 01:56:40;;;;;;;16.97;10.03;;;7.60;99.90;;;;;;5078694;28;20209;-70
2021/05/09 01:59:08;;;;;;;16.30;9.40;;;7.50;99.90;;;;;;5082245;28;20232;-72
2021/05/09 02:01:34;;;;;;;18.77;9.90;;;7.50;99.90;;;;;;5085408;28;20724;-71
2021/05/09 02:04:01;;;;;;;21.13;10.87;;;7.50;99.90;;;;;;5084080;28;20292;-71
2021/05/09 02:06:27;;;;;;;14.50;8.57;;;7.50;99.90;;;;;;5089602;28;20287;-70
2021/05/09 02:08:53;;;;;;;17.23;10.37;;;7.50;99.90;;;;;;5083958;28;20205;-71
2021/05/09 02:11:21;;;;;;;18.10;10.23;;;7.50;99.90;;;;;;5081686;28;20201;-70
2021/05/09 02:13:47;;;;;;;16.07;9.47;;;7.50;99.90;;;;;;5086803;28;20266;-71
2021/05/09 02:16:14;;;;;;;20.00;10.47;;;7.50;99.90;;;;;;5088604;28;20200;-71
2021/05/09 02:18:40;;;;;;;17.17;9.37;;;7.40;99.90;;;;;;5082261;28;20291;-70
2021/05/09 02:21:06;;;;;;;17.50;10.50;;;7.40;99.90;;;;;;5083697;28;20232;-71
2021/05/09 02:23:33;;;;;;;13.43;9.43;;;7.40;99.90;;;;;;5081519;28;20284;-70
2021/05/09 02:25:59;;;;;;;16.97;9.73;;;7.30;99.90;;;;;;5086424;28;20206;-71
2021/05/09 02:28:26;;;;;;;19.33;10.07;;;7.40;99.90;;;;;;5079496;28;20204;-70
2021/05/09 02:30:53;;;;;;;17.17;9.77;;;7.40;99.90;;;;;;5079010;28;20228;-71
2021/05/09 02:33:19;;;;;;;18.80;10.27;;;7.30;99.90;;;;;;5086750;28;20250;-70
2021/05/09 02:35:46;;;;;;;13.77;9.57;;;7.30;99.90;;;;;;5081110;28;20281;-71
2021/05/09 02:38:13;;;;;;;16.97;9.47;;;7.30;99.90;;;;;;5084282;28;20265;-70
2021/05/09 02:40:39;;;;;;;11.53;8.77;;;7.30;99.90;;;;;;5076649;28;20288;-71
2021/05/09 02:43:06;;;;;;;16.07;10.10;;;7.20;99.90;;;;;;5084868;28;20211;-70
2021/05/09 02:45:34;;;;;;;16.90;10.07;;;7.20;99.90;;;;;;5082266;28;20201;-70
2021/05/09 02:48:00;;;;;;;15.97;10.63;;;7.20;99.90;;;;;;5085605;28;20662;-71
2021/05/09 02:50:27;;;;;;;15.73;10.77;;;7.20;99.90;;;;;;5079285;28;20746;-71
2021/05/09 02:52:54;;;;;;;18.13;10.60;;;7.20;99.90;;;;;;5074288;28;20212;-71
2021/05/09 02:55:20;;;;;;;15.23;10.63;;;7.20;99.90;;;;;;5080043;28;20300;-71
2021/05/09 02:57:47;;;;;;;16.63;11.00;;;7.20;99.90;;;;;;5083984;28;20243;-71
2021/05/09 03:00:15;;;;;;;16.67;10.87;;;7.20;99.90;;;;;;5087422;28;20296;-71
2021/05/09 03:02:42;;;;;;;16.90;11.50;;;7.20;99.90;;;;;;5086726;28;20307;-70
2021/05/09 03:05:10;;;;;;;17.77;11.47;;;7.20;99.90;;;;;;5086690;28;20701;-70
2021/05/09 03:07:36;;;;;;;16.97;10.93;;;7.20;99.90;;;;;;5083582;28;21498;-70
2021/05/09 03:10:04;;;;;;;18.67;11.70;;;7.20;99.90;;;;;;5075777;28;20582;-70
2021/05/09 03:12:30;;;;;;;13.97;9.87;;;7.10;99.90;;;;;;5089340;28;20284;-71
2021/05/09 03:14:57;;;;;;;16.37;10.00;;;7.10;99.90;;;;;;5082717;28;20225;-70
2021/05/09 03:17:23;;;;;;;17.10;11.27;;;7.10;99.90;;;;;;5084061;28;20207;-70
2021/05/09 03:19:50;;;;;;;14.43;9.97;;;7.10;99.90;;;;;;5079601;28;20246;-70
2021/05/09 03:22:17;;;;;;;17.07;9.97;;;7.10;99.90;;;;;;5087009;28;20746;-71
2021/05/09 03:24:43;;;;;;;12.00;9.40;;;7.10;99.90;;;;;;5083075;28;20204;-70
2021/05/09 03:27:09;;;;;;;17.40;9.70;;;7.20;99.90;;;;;;5078741;28;20274;-70
2021/05/09 03:29:36;;;;;;;16.33;9.87;;;7.20;99.90;;;;;;5075300;28;20730;-70
2021/05/09 03:32:02;;;;;;;12.00;8.43;;;7.30;99.90;;;;;;5081067;28;20208;-70
2021/05/09 03:34:28;;;;;;;12.87;8.90;;;7.30;99.90;;;;;;5081001;28;20264;-70
2021/05/09 03:36:55;;;;;;;14.40;8.93;;;7.40;99.90;;;;;;5082125;28;20296;-72
2021/05/09 03:39:22;;;;;;;14.17;9.07;;;7.40;99.90;;;;;;5073803;28;20661;-71
2021/05/09 03:41:48;;;;;;;10.20;7.77;;;7.40;99.90;;;;;;5086044;28;20205;-71
2021/05/09 03:44:15;;;;;;;15.70;9.00;;;7.60;99.90;;;;;;5086044;28;20201;-72
2021/05/09 03:46:41;;;;;;;9.23;7.23;;;7.60;99.90;;;;;;5084414;28;20245;-71
2021/05/09 03:49:07;;;;;;;11.27;7.57;;;7.70;99.90;;;;;;5080124;28;20662;-71
2021/05/09 03:51:34;;;;;;;13.63;8.90;;;7.80;99.90;;;;;;5077219;28;20258;-70
2021/05/09 03:54:01;;;;;;;14.30;10.07;;;7.80;99.90;;;;;;5085269;28;20208;-70
2021/05/09 03:56:27;;;;;;;15.03;9.83;;;7.90;99.90;;;;;;5087924;28;20209;-71
2021/05/09 03:58:54;;;;;;;12.63;9.30;;;7.90;99.90;;;;;;5091486;28;20246;-70
2021/05/09 04:01:20;;;;;;;15.87;8.97;;;7.90;99.90;;;;;;5085183;28;20735;-70
2021/05/09 04:03:47;;;;;;;13.03;10.03;;;8.00;99.90;;;;;;5086233;28;20206;-71
2021/05/09 04:06:13;;;;;;;14.43;9.47;;;8.00;99.90;;;;;;5091367;28;20212;-71
2021/05/09 04:08:39;;;;;;;15.20;8.77;;;8.10;99.90;;;;;;5088057;28;20664;-70
2021/05/09 04:11:12;;;;;;;14.80;9.07;;;8.10;99.90;;;;;;5078974;28;20638;-71
2021/05/09 04:13:49;;;;;;;15.43;9.37;;;8.20;99.90;;;;;;5085728;28;20343;-70
2021/05/09 04:16:16;;;;;;;15.87;9.67;;;8.10;99.90;;;;;;5087304;28;20196;-70
2021/05/09 04:18:42;;;;;;;14.50;8.90;;;8.10;99.90;;;;;;5083800;28;20656;-71
2021/05/09 04:21:09;;;;;;;15.10;9.73;;;8.10;99.90;;;;;;5079989;28;20205;-71
2021/05/09 04:23:35;;;;;;;12.90;9.17;;;8.20;99.90;;;;;;5085164;28;20201;-71
2021/05/09 04:26:02;;;;;;;16.10;8.80;;;8.20;99.90;;;;;;5090468;28;20232;-71
2021/05/09 04:28:29;;;;;;;13.13;8.87;;;8.20;99.90;;;;;;5079916;28;20208;-70
2021/05/09 04:30:55;;;;;;;11.30;8.87;;;8.30;99.90;;;;;;5068458;28;20308;-70
2021/05/09 04:33:25;;;;;;;14.67;8.13;;;8.50;99.90;;;;;;5082002;28;20217;-71
2021/05/09 04:35:52;;;;;;;12.90;8.80;;;8.50;99.90;;;;;;5088672;28;20728;-71
2021/05/09 04:38:19;;;;;;;15.10;8.97;;;8.60;99.90;;;;;;5087464;28;20607;-71
2021/05/09 04:40:45;;;;;;;13.33;8.63;;;8.70;99.90;;;;;;5075929;28;20215;-72
2021/05/09 04:43:15;;;;;;;11.87;8.40;;;8.80;99.90;;;;;;5086078;28;20211;-71
2021/05/09 04:45:45;;;;;;;11.73;8.30;;;8.90;99.90;;;;;;5087126;28;20204;-71
2021/05/09 04:48:11;;;;;;;15.87;9.03;;;9.00;99.90;;;;;;5088914;28;20201;-71
2021/05/09 04:50:37;;;;;;;13.80;8.87;;;9.00;99.90;;;;;;5083019;28;20603;-71
2021/05/09 04:53:04;;;;;;;14.07;9.07;;;9.10;99.90;;;;;;5084938;28;20659;-72
2021/05/09 04:55:30;;;;;;;13.17;9.23;;;9.20;99.70;;;;;;5084819;28;20225;-70
2021/05/09 04:57:56;;;;;;;12.13;8.37;;;9.20;99.20;;;;;;5084940;28;20553;-72
2021/05/09 05:00:23;;;;;;;14.23;9.30;;;9.20;98.70;;;;;;5079030;28;20197;-71
2021/05/09 05:02:50;;;;;;;14.30;9.20;;;9.30;98.60;;;;;;5089220;28;20205;-73
2021/05/09 05:05:17;;;;;;;13.13;8.40;;;9.40;98.10;;;;;;5088940;28;20317;-71
2021/05/09 05:07:44;;;;;;;13.07;8.33;;;9.40;97.70;;;;;;5084161;28;20244;-71
2021/05/09 05:10:11;;;;;;;12.90;8.67;;;9.50;97.30;;;;;;5083070;28;20222;-72
2021/05/09 05:12:37;;;;;;;11.77;8.27;;;9.50;96.70;;;;;;5085569;28;20215;-72
2021/05/09 05:15:04;;;;;;;11.97;8.43;;;9.60;96.50;;;;;;5084156;28;20737;-70
2021/05/09 05:17:31;;;;;;;12.93;8.57;;;9.60;96.00;;;;;;5088419;28;20325;-71
2021/05/09 05:19:59;;;;;;;13.60;9.00;;;9.70;95.70;;;;;;5081592;28;20289;-71
2021/05/09 05:22:25;;;;;;;16.83;9.23;;;9.70;95.60;;;;;;5075406;28;20205;-71
2021/05/09 05:24:51;;;;;;;13.90;9.10;;;9.80;95.70;;;;;;5083860;28;20232;-71
2021/05/09 05:27:18;;;;;;;13.87;9.63;;;9.80;95.70;;;;;;5084195;28;20286;-72
2021/05/09 05:29:44;;;;;;;13.73;9.57;;;9.90;95.80;;;;;;5081194;28;20664;-71
2021/05/09 05:32:10;;;;;;;13.40;8.63;;;10.00;95.50;;;;;;5082034;28;20647;-72
2021/05/09 05:34:37;;;;;;;13.17;9.13;;;10.10;95.30;;;;;;5084699;28;20270;-72
2021/05/09 05:37:04;;;;;;;16.00;9.57;;;10.10;94.70;;;;;;5086280;28;20287;-72
2021/05/09 05:39:30;;;;;;;13.37;8.63;;;10.10;94.70;;;;;;5075858;28;20233;-73
2021/05/09 05:41:58;;;;;;;12.60;8.00;;;10.20;94.30;;;;;;5081720;28;20209;-73
2021/05/09 05:44:24;;;;;;;12.77;9.40;;;10.20;93.80;;;;;;5086862;28;20212;-71
2021/05/09 05:46:50;;;;;;;12.57;8.27;;;10.20;93.60;;;;;;5078200;28;20208;-72
2021/05/09 05:49:17;;;;;;;11.97;7.90;;;10.20;93.50;;;;;;5070659;28;20229;-72
2021/05/09 05:51:43;;;;;;;12.30;8.20;;;10.20;93.40;;;;;;5071137;28;20205;-72
2021/05/09 05:54:11;;;;;;;13.63;8.33;;;10.20;93.20;;;;;;5077454;28;20266;-73
2021/05/09 05:56:37;;;;;;;12.43;7.90;;;10.20;93.00;;;;;;5085451;28;20285;-72
2021/05/09 05:59:04;;;;;;;13.03;7.73;;;10.30;92.60;;;;;;5086523;28;20708;-72
2021/05/09 06:01:30;;;;;;;11.60;8.37;;;10.30;92.20;;;;;;5075160;28;20569;-73
2021/05/09 06:03:57;;;;;;;13.37;8.53;;;10.30;92.20;;;;;;5080007;28;20709;-72
2021/05/09 06:06:23;;;;;;;12.70;8.20;;;10.30;92.40;;;;;;5079727;28;20233;-71
2021/05/09 06:08:52;;;;;;;12.27;7.70;;;10.40;92.20;;;;;;5085593;28;20619;-71
2021/05/09 06:11:19;;;;;;;12.50;7.67;;;10.50;92.20;;;;;;5082744;28;20274;-71
2021/05/09 06:13:46;;;;;;;10.83;7.30;;;10.60;92.20;;;;;;5085944;28;20258;-72
2021/05/09 06:16:12;;;;;;;12.33;7.40;;;10.70;91.90;;;;;;5077199;28;20315;-73
2021/05/09 06:18:38;;;;;;;12.10;8.17;;;10.80;91.20;;;;;;5082048;28;20212;-73
2021/05/09 06:21:06;;;;;;;10.50;7.60;;;10.90;90.70;;;;;;5077459;28;20288;-73
2021/05/09 06:23:32;;;;;;;9.27;7.00;;;11.00;90.30;;;;;;5084021;28;20211;-72
2021/05/09 06:25:59;;;;;;;10.30;6.73;;;11.10;89.10;;;;;;5082721;28;20205;-72
2021/05/09 06:28:26;;;;;;;10.37;6.93;;;11.10;87.90;;;;;;5071275;28;20209;-74
2021/05/09 06:30:52;;;;;;;10.30;6.73;;;11.10;86.70;;;;;;5081053;28;20246;-71
2021/05/09 06:33:19;;;;;;;10.63;7.17;;;11.20;86.90;;;;;;5082275;28;20204;-71
2021/05/09 06:35:45;;;;;;;10.13;6.20;;;11.30;86.20;;;;;;5080639;28;20236;-72
2021/05/09 06:38:12;;;;;;;10.43;7.57;;;11.40;86.20;;;;;;5074284;28;20211;-73
2021/05/09 06:40:38;;;;;;;10.43;7.17;;;11.60;86.00;;;;;;5074828;28;20213;-72
2021/05/09 06:43:06;;;;;;;8.43;5.90;;;11.80;84.40;;;;;;5078390;28;20213;-72
2021/05/09 06:45:34;;;;;;;8.83;6.67;;;11.80;83.00;;;;;;5083796;28;20197;-71
2021/05/09 06:48:02;;;;;;;8.93;6.40;;;11.90;81.80;;;;;;5077503;28;20197;-71
2021/05/09 06:50:31;;;;;;;10.10;6.03;;;11.80;81.00;;;;;;5070178;28;20225;-70
2021/05/09 06:52:57;;;;;;;9.33;6.20;;;11.90;81.00;;;;;;5075103;28;20205;-70
2021/05/09 06:55:24;;;;;;;9.63;6.50;;;11.90;80.20;;;;;;5086768;28;20297;-72
2021/05/09 06:57:51;;;;;;;10.63;6.90;;;11.90;80.10;;;;;;5083582;28;20235;-72
2021/05/09 07:00:20;;;;;;;8.93;6.07;;;12.00;80.50;;;;;;5080698;28;20267;-72
2021/05/09 07:02:47;;;;;;;12.33;6.40;;;12.10;80.50;;;;;;5078371;28;20250;-71
2021/05/09 07:05:14;;;;;;;10.17;6.20;;;12.20;80.00;;;;;;5085384;28;20570;-74
2021/05/09 07:07:52;;;;;;;9.33;5.70;;;12.30;78.90;;;;;;5076531;28;20300;-72
2021/05/09 07:10:18;;;;;;;8.30;5.53;;;12.40;77.80;;;;;;5082690;28;20303;-73
2021/05/09 07:12:45;;;;;;;9.77;6.03;;;12.60;77.60;;;;;;5081614;28;20256;-73
2021/05/09 07:15:14;;;;;;;6.17;5.27;;;12.70;75.70;;;;;;5084789;28;20700;-73
2021/05/09 07:17:42;;;;;;;8.00;5.37;;;12.80;74.00;;;;;;5073336;28;20205;-73
2021/05/09 07:20:10;;;;;;;7.47;4.80;;;12.90;73.20;;;;;;5076286;28;20654;-74
2021/05/09 07:22:39;;;;;;;7.53;4.90;;;13.10;72.80;;;;;;5075574;28;20221;-71
2021/05/09 07:25:06;;;;;;;7.77;5.03;;;13.20;71.70;;;;;;5081480;28;20201;-73
2021/05/09 07:27:32;;;;;;;7.40;4.73;;;13.40;70.40;;;;;;5089692;28;20200;-74
2021/05/09 07:29:59;;;;;;;6.87;5.03;;;13.50;68.80;;;;;;5080219;28;20225;-74
2021/05/09 07:32:25;;;;;;;7.73;4.70;;;13.60;68.00;;;;;;5087827;28;20201;-68
2021/05/09 07:34:52;;;;;;;7.23;4.60;;;13.80;66.20;;;;;;5093142;28;20228;-73
2021/05/09 07:37:19;;;;;;;8.10;5.00;;;13.80;65.60;;;;;;5095157;28;20287;-68
2021/05/09 07:39:45;;;;;;;6.97;4.77;;;14.00;65.30;;;;;;5087014;28;20255;-71
2021/05/09 07:42:12;;;;;;;7.60;4.80;;;14.10;64.40;;;;;;5085185;28;20295;-72
2021/05/09 07:44:38;;;;;;;6.33;4.67;;;14.20;63.10;;;;;;5092249;28;20208;-72
2021/05/09 07:47:04;;;;;;;8.47;5.17;;;14.20;61.80;;;;;;5084205;28;20208;-72
2021/05/09 07:49:31;;;;;;;5.30;3.90;;;14.30;61.70;;;;;;5093024;28;20204;-71
2021/05/09 07:51:57;;;;;;;7.33;4.77;;;14.40;60.90;;;;;;5083534;28;20664;-72
2021/05/09 07:54:25;;;;;;;7.20;4.27;;;14.50;60.70;;;;;;5083794;28;20719;-72
2021/05/09 07:56:51;;;;;;;7.57;4.20;;;14.60;59.80;;;;;;5082830;28;20312;-69
2021/05/09 07:59:17;;;;;;;5.57;4.20;;;14.80;59.30;;;;;;5090944;28;20332;-70
2021/05/09 08:01:44;;;;;;;7.37;4.17;;;14.90;58.00;;;;;;5083360;28;20269;-71
2021/05/09 08:04:10;;;;;;;7.10;3.67;;;15.10;57.20;;;;;;5084362;28;20292;-72
2021/05/09 08:06:38;;;;;;;7.33;4.37;;;15.20;56.20;;;;;;5084035;28;20219;-72
2021/05/09 08:09:05;;;;;;;5.93;4.50;;;15.30;55.20;;;;;;5089882;28;20209;-72
2021/05/09 08:11:33;;;;;;;5.77;3.83;;;15.30;53.80;;;;;;5091321;28;20228;-74
2021/05/09 08:13:59;;;;;;;6.33;4.60;;;15.40;53.70;;;;;;5088530;28;20563;-71
2021/05/09 08:16:26;;;;;;;5.77;3.90;;;15.50;53.80;;;;;;5088474;28;20248;-72
2021/05/09 08:18:53;;;;;;;6.63;3.80;;;15.60;53.60;;;;;;5079506;28;20205;-71
2021/05/09 08:21:19;;;;;;;6.77;4.47;;;15.80;53.50;;;;;;5073627;28;20200;-71
2021/05/09 08:23:45;;;;;;;7.10;4.23;;;15.90;52.90;;;;;;5076101;28;20673;-71
2021/05/09 08:26:12;;;;;;;5.37;3.70;;;16.00;52.40;;;;;;5076971;28;20295;-72
2021/05/09 08:28:41;;;;;;;6.50;4.30;;;16.10;51.60;;;;;;5077309;28;20212;-71
2021/05/09 08:31:10;;;;;;;7.20;4.90;;;16.20;51.60;;;;;;5083159;28;20212;-70
2021/05/09 08:33:37;;;;;;;7.43;4.70;;;16.30;52.20;;;;;;5075901;28;20237;-73
2021/05/09 08:36:04;;;;;;;7.67;4.23;;;16.50;51.90;;;;;;5075861;28;20245;-71
2021/05/09 08:38:30;;;;;;;6.20;3.87;;;16.70;52.00;;;;;;5075994;28;20236;-71
2021/05/09 08:40:58;;;;;;;6.63;3.90;;;17.00;50.70;;;;;;5075474;28;20544;-70
2021/05/09 08:43:25;;;;;;;4.43;3.53;;;17.10;50.20;;;;;;5074895;28;20642;-72
2021/05/09 08:45:52;;;;;;;5.30;3.77;;;17.30;49.50;;;;;;5073315;28;20256;-72
2021/05/09 08:48:23;;;;;;;5.73;3.70;;;17.50;48.90;;;;;;5087026;28;20288;-71
2021/05/09 08:50:50;;;;;;;5.45;3.83;;;17.70;48.80;;;;;;5074141;28;20722;-72
2021/05/09 08:53:17;;;;;;;5.03;3.50;;;17.90;49.00;;;;;;5076484;28;20577;-73
2021/05/09 08:55:43;;;;;;;6.05;3.75;;;18.10;48.20;;;;;;5079995;28;20204;-72
2021/05/09 08:58:10;;;;;;;5.53;3.73;;;18.20;47.80;;;;;;5089294;28;20213;-73
2021/05/09 09:00:37;;;;;;;6.40;4.00;;;18.20;47.10;;;;;;5073639;28;20289;-73
2021/05/09 09:03:05;;;;;;;4.67;3.40;;;18.10;47.20;;;;;;5075444;28;20638;-72
2021/05/09 09:05:36;;;;;;;5.27;3.90;;;18.10;47.30;;;;;;5079928;28;20296;-72
2021/05/09 09:08:04;;;;;;;5.93;3.87;;;18.20;47.70;;;;;;5078449;28;20222;-73
2021/05/09 09:10:32;;;;;;;4.32;3.10;;;18.30;47.50;;;;;;5081876;28;20689;-74
2021/05/09 09:13:00;;;;;;;6.53;3.63;;;18.40;47.10;;;;;;5084235;28;20271;-72
2021/05/09 09:15:48;;;;;;;4.80;3.63;;;18.50;46.50;;;;;;5081932;28;20727;-72
2021/05/09 09:18:30;;;;;;;4.57;3.47;;;18.60;45.50;;;;;;5076426;28;20198;-72
2021/05/09 09:20:57;;;;;;;7.20;3.30;;;18.70;45.70;;;;;;5085452;28;20684;-71
2021/05/09 09:23:24;;;;;;;4.38;3.45;;;18.90;45.70;;;;;;5086486;28;20676;-71
2021/05/09 09:25:50;;;;;;;6.72;3.03;;;19.00;45.10;;;;;;5087404;28;20221;-72
2021/05/09 09:28:18;;;;;;;6.43;3.20;;;19.20;45.10;;;;;;5078032;28;20300;-74
2021/05/09 09:30:52;;;;;;;5.80;3.70;;;19.40;44.80;;;;;;5079240;28;20229;-73
2021/05/09 09:33:18;;;;;;;5.68;2.95;;;19.50;46.10;;;;;;5079247;28;20212;-73
2021/05/09 09:35:48;;;;;;;5.03;3.30;;;19.80;45.30;;;;;;5078783;28;20230;-74
2021/05/09 09:38:28;;;;;;;5.18;3.13;;;19.90;44.80;;;;;;5088226;28;20213;-75
2021/05/09 09:41:15;;;;;;;4.50;3.50;;;20.00;44.00;;;;;;5082136;28;20208;-75
2021/05/09 09:43:44;;;;;;;3.42;2.58;;;20.10;43.90;;;;;;5079420;28;20288;-72
2021/05/09 09:46:28;;;;;;;4.05;2.67;;;20.00;44.10;;;;;;5081888;28;20209;-77
2021/05/09 09:48:55;;;;;;;3.95;3.10;;;20.00;44.20;;;;;;5079896;28;20539;-74
2021/05/09 09:51:23;;;;;;;3.28;2.65;;;20.10;43.70;;;;;;5081472;28;20256;-75
2021/05/09 09:53:50;;;;;;;3.47;2.83;;;20.20;44.40;;;;;;5084914;28;20301;-73
2021/05/09 09:56:18;;;;;;;5.32;2.75;;;20.40;45.00;;;;;;5082161;28;20208;-73
2021/05/09 09:58:52;;;;;;;6.78;2.70;;;20.60;44.10;;;;;;5080844;28;20229;-75
2021/05/09 10:01:23;;;;;;;4.70;2.40;;;20.70;43.90;;;;;;5076269;28;20247;-74
2021/05/09 10:03:51;;;;;;;4.38;2.80;;;20.80;42.60;;;;;;5075463;28;20209;-78
2021/05/09 10:06:19;;;;;;;3.83;2.80;;;20.70;42.80;;;;;;5077799;28;20291;-72
2021/05/09 10:08:47;;;;;;;3.35;2.50;;;20.80;43.00;;;;;;5082705;28;20237;-73
2021/05/09 10:11:13;;;;;;;4.20;2.63;;;20.90;43.30;;;;;;5079294;28;20230;-74
2021/05/09 10:13:40;;;;;;;3.60;2.63;;;20.90;42.50;;;;;;5077670;28;20229;-74
2021/05/09 10:16:07;;;;;;;2.90;2.42;;;20.90;42.50;;;;;;5079878;28;20295;-74
2021/05/09 10:18:34;;;;;;;3.60;2.55;;;20.90;41.90;;;;;;5086229;28;20630;-75
2021/05/09 10:21:01;;;;;;;3.22;2.60;;;20.90;42.50;;;;;;5076536;28;20292;-74
2021/05/09 10:23:28;;;;;;;3.40;2.30;;;21.00;42.10;;;;;;5086628;28;20747;-74
2021/05/09 10:25:57;;;;;;;4.63;2.90;;;21.10;42.40;;;;;;5074066;28;20201;-73
2021/05/09 10:28:25;;;;;;;3.08;2.40;;;21.20;43.00;;;;;;5084943;28;20212;-75
2021/05/09 10:30:53;;;;;;;6.55;2.92;;;21.30;42.30;;;;;;5080157;28;20698;-76
2021/05/09 10:33:47;;;;;;;3.55;2.50;;;21.40;42.30;;;;;;5078111;28;21022;-74
2021/05/09 10:36:40;;;;;;;4.25;2.85;;;21.50;42.00;;;;;;5080479;28;20267;-74
2021/05/09 10:39:08;;;;;;;3.65;2.95;;;21.50;42.50;;;;;;5073070;28;20206;-76
2021/05/09 10:41:38;;;;;;;4.32;3.25;;;21.60;42.50;;;;;;5076306;28;20204;-74
2021/05/09 10:44:40;;;;;;;4.70;2.60;;;21.70;42.80;;;;;;5071534;28;20548;-73
2021/05/09 10:47:08;;;;;;;3.13;2.50;;;21.70;41.90;;;;;;5074007;28;20207;-73
2021/05/09 10:49:34;;;;;;;4.90;2.55;;;21.50;42.10;;;;;;5079824;28;20232;-74
2021/05/09 10:52:41;;;;;;;6.15;2.63;;;21.50;42.60;;;;;;5082922;28;20224;-72
2021/05/09 10:55:41;;;;;;;3.13;2.35;;;21.50;42.70;;;;;;5082419;28;20664;-71
2021/05/09 10:58:10;;;;;;;6.28;2.60;;;21.80;42.90;;;;;;5078583;28;20209;-73
2021/05/09 11:01:09;;;;;;;3.00;2.40;;;21.90;42.60;;;;;;5069560;28;20262;-75
2021/05/09 11:03:51;;;;;;;3.00;2.53;;;22.10;41.80;;;;;;5076435;28;20209;-72
2021/05/09 11:06:21;;;;;;;2.88;2.22;;;22.20;41.60;;;;;;5073451;28;20299;-74
2021/05/09 11:08:59;;;;;;;2.85;2.10;;;22.20;41.20;;;;;;5080804;28;20315;-73
2021/05/09 11:11:59;;;;;;;3.88;2.45;;;22.20;41.30;;;;;;5076733;28;20396;-73
2021/05/09 11:14:31;;;;;;;2.78;2.38;;;22.30;41.50;;;;;;5086028;28;20225;-73
2021/05/09 11:17:13;;;;;;;2.45;2.25;;;22.20;41.00;;;;;;5076497;28;20254;-71
2021/05/09 11:19:43;;;;;;;4.35;2.70;;;22.20;41.00;;;;;;5079718;28;20254;-73
2021/05/09 11:22:10;;;;;;;2.63;2.30;;;22.20;40.60;;;;;;5088435;28;20201;-73
2021/05/09 11:24:39;;;;;;;2.28;1.90;;;22.10;41.10;;;;;;5090595;28;20278;-74
2021/05/09 11:27:10;;;;;;;2.63;2.10;;;22.10;41.70;;;;;;5078611;28;20253;-70
2021/05/09 11:29:40;;;;;;;6.75;2.63;;;22.20;41.00;;;;;;5086683;28;20260;-72
2021/05/09 11:32:11;;;;;;;3.65;2.15;;;22.30;40.80;;;;;;5084986;28;20228;-71
2021/05/09 11:34:38;;;;;;;4.00;2.28;;;22.40;41.00;;;;;;5075727;28;20263;-68
2021/05/09 11:37:05;;;;;;;3.10;2.22;;;22.50;40.50;;;;;;5083826;28;20284;-71
2021/05/09 11:39:37;;;;;;;3.10;2.30;;;22.50;40.60;;;;;;5089493;28;20207;-72
2021/05/09 11:42:09;;;;;;;2.78;2.00;;;22.60;40.70;;;;;;5077568;28;20240;-69
2021/05/09 11:44:40;;;;;;;2.78;2.15;;;22.60;40.00;;;;;;5078606;28;20255;-69
2021/05/09 11:47:09;;;;;;;4.00;1.83;;;22.50;39.50;;;;;;5075749;28;20660;-69
2021/05/09 11:49:36;;;;;;;3.33;2.00;;;22.40;39.50;;;;;;5073858;28;20269;-72
2021/05/09 11:52:08;;;;;;;2.55;1.65;;;22.30;39.90;;;;;;5074044;28;20221;-73
2021/05/09 11:54:36;;;;;;;1.92;1.60;;;22.20;40.80;;;;;;5078896;28;20250;-73
2021/05/09 11:57:04;;;;;;;2.92;1.70;;;22.20;40.60;;;;;;5081950;28;20201;-73
2021/05/09 11:59:40;;;;;;;1.77;1.60;;;22.20;40.50;;;;;;5075489;28;20215;-74
2021/05/09 12:02:25;;;;;;;1.92;1.60;;;22.20;40.30;;;;;;5074600;28;20224;-74
2021/05/09 12:04:55;;;;;;;3.00;1.77;;;22.30;41.00;;;;;;5082297;28;20217;-72
2021/05/09 12:07:25;;;;;;;2.17;1.80;;;22.40;41.10;;;;;;5074220;28;20208;-72
2021/05/09 12:09:57;;;;;;;1.63;1.52;;;22.50;41.20;;;;;;5077786;28;20613;-70
2021/05/09 12:12:25;;;;;;;3.50;1.60;;;22.70;40.70;;;;;;5077028;28;20226;-71
2021/05/09 12:14:54;;;;;;;3.33;1.52;;;22.80;40.10;;;;;;5078093;28;20236;-71
2021/05/09 12:17:22;;;;;;;2.00;1.63;;;22.80;39.70;;;;;;5085254;28;20296;-71
2021/05/09 12:19:49;;;;;;;4.97;1.75;;;22.70;39.60;;;;;;5090281;28;20351;-71
2021/05/09 12:22:15;;;;;;;2.45;1.67;;;22.80;39.30;;;;;;5085720;28;20215;-71
2021/05/09 12:24:56;;;;;;;5.22;1.80;;;22.80;39.50;;;;;;5078699;28;20287;-71
2021/05/09 12:27:23;;;;;;;1.58;1.48;;;22.80;39.70;;;;;;5086875;28;20208;-71
2021/05/09 12:29:51;;;;;;;1.90;1.60;;;22.80;39.20;;;;;;5076525;28;20394;-72
2021/05/09 12:32:27;;;;;;;3.42;2.13;;;22.70;39.20;;;;;;5083517;28;20231;-73
2021/05/09 12:35:15;;;;;;;2.20;1.60;;;22.70;39.10;;;;;;5083364;28;20236;-73
2021/05/09 12:38:00;;;;;;;2.53;1.58;;;22.60;39.40;;;;;;5081552;28;20273;-72
2021/05/09 12:40:31;;;;;;;2.42;1.63;;;22.50;39.50;;;;;;5092052;28;20193;-73
2021/05/09 12:43:03;;;;;;;1.55;1.45;;;22.50;39.00;;;;;;5086226;28;20200;-74
2021/05/09 12:45:43;;;;;;;2.67;1.60;;;22.50;39.40;;;;;;5083928;28;20227;-72
2021/05/09 12:48:13;;;;;;;2.33;1.40;;;22.60;39.80;;;;;;5087734;28;20280;-72
2021/05/09 12:50:53;;;;;;;3.45;1.90;;;22.90;40.40;;;;;;5085221;28;20232;-72
2021/05/09 12:53:49;;;;;;;2.13;1.63;;;22.90;39.20;;;;;;5084076;28;20216;-71